Time;durP1;ratioP1;P1;durP2;ratioP2;P2;SDS_P1;SDS_P2;PMS_P1;PMS_P2;Temp;Humidity;BMP_temperature;BMP_pressure;BME280_temperature;BME280_humidity;BME280_pressure;Samples;Min_cycle;Max_cycle;Signal;HPM_P1;HPM_P2
2022/10/04 00:01:12;;;;;;;10.18;4.70;;;11.60;99.90;;;10.96;100.00;101804.69;5098901;23;20116;-77
2022/10/04 00:03:41;;;;;;;8.68;4.38;;;11.70;99.90;;;10.96;100.00;101807.31;5072671;23;20423;-77
2022/10/04 00:05:50;;;;;;;8.30;3.80;;;11.70;99.90;;;10.95;100.00;101800.34;5072740;23;20490;-77
2022/10/04 00:08:01;;;;;;;6.13;3.97;;;11.70;99.90;;;10.96;100.00;101802.03;5073336;23;20518;-77
2022/10/04 00:10:30;;;;;;;4.63;3.20;;;11.70;99.90;;;11.02;100.00;101812.06;5098971;23;20089;-77
2022/10/04 00:12:45;;;;;;;7.40;3.60;;;11.70;99.90;;;11.00;100.00;101808.72;5098966;23;20005;-77
2022/10/04 00:14:46;;;;;;;12.63;3.97;;;11.70;99.90;;;10.99;100.00;101799.94;5074022;23;20006;-77
2022/10/04 00:16:48;;;;;;;6.03;3.30;;;11.70;99.90;;;11.01;100.00;101799.81;5072569;23;20093;-77
2022/10/04 00:19:14;;;;;;;6.07;3.40;;;11.70;99.90;;;11.01;100.00;101808.59;5072658;23;20006;-77
2022/10/04 00:21:15;;;;;;;4.30;2.30;;;11.70;99.90;;;11.00;100.00;101803.44;5098790;23;20025;-77
2022/10/04 00:23:36;;;;;;;5.75;3.00;;;11.70;99.90;;;11.00;100.00;101804.25;5098731;23;20009;-77
2022/10/04 00:25:37;;;;;;;5.95;2.85;;;11.70;99.90;;;10.97;100.00;101795.78;5098733;23;20006;-77
2022/10/04 00:27:59;;;;;;;4.97;3.22;;;11.70;99.90;;;10.98;100.00;101800.09;5073149;23;20013;-77
2022/10/04 00:30:03;;;;;;;4.80;2.80;;;11.70;99.90;;;10.93;100.00;101803.09;5098504;23;20057;-77
2022/10/04 00:32:07;;;;;;;3.97;3.03;;;11.70;99.90;;;10.90;100.00;101798.09;5098776;23;20080;-77
2022/10/04 00:34:07;;;;;;;8.82;3.15;;;11.70;99.90;;;10.87;100.00;101798.38;5072290;23;20536;-77
2022/10/04 00:36:24;;;;;;;8.38;3.63;;;11.60;99.90;;;10.83;100.00;101796.13;5098169;23;20036;-77
2022/10/04 00:38:27;;;;;;;4.82;3.67;;;11.60;99.90;;;10.77;100.00;101794.84;5072644;23;20021;-77
2022/10/04 00:40:54;;;;;;;7.60;3.70;;;11.60;99.90;;;10.69;100.00;101776.22;5048458;23;20010;-77
2022/10/04 00:43:10;;;;;;;6.47;3.65;;;11.50;99.90;;;10.71;100.00;101792.75;5097387;23;20098;-77
2022/10/04 00:45:27;;;;;;;4.70;3.20;;;11.50;99.90;;;10.68;100.00;101784.25;5073559;23;20002;-77
2022/10/04 00:47:59;;;;;;;7.72;3.47;;;11.50;99.90;;;10.73;100.00;101801.34;5075037;23;20002;-77
2022/10/04 00:50:13;;;;;;;5.03;3.33;;;11.50;99.90;;;10.71;100.00;101792.75;5073844;23;20006;-77
2022/10/04 00:52:27;;;;;;;4.82;3.70;;;11.50;99.90;;;10.70;100.00;101785.78;5073275;23;20469;-77
2022/10/04 00:54:33;;;;;;;6.93;3.75;;;11.50;99.90;;;10.68;100.00;101773.69;5073352;23;20028;-77
2022/10/04 00:56:56;;;;;;;5.40;3.70;;;11.50;99.90;;;10.74;100.00;101792.47;5098424;23;20013;-77
2022/10/04 00:59:36;;;;;;;5.22;3.47;;;11.50;99.90;;;10.75;100.00;101783.56;5073708;23;20354;-77
2022/10/04 01:01:37;;;;;;;5.85;3.33;;;11.50;99.90;;;10.71;100.00;101778.72;5071883;23;20014;-77
2022/10/04 01:03:45;;;;;;;7.38;3.65;;;11.50;99.90;;;10.74;100.00;101781.94;5071778;23;20065;-77
2022/10/04 01:05:54;;;;;;;6.68;3.75;;;11.50;99.90;;;10.76;100.00;101774.69;5073241;23;20006;-77
2022/10/04 01:08:08;;;;;;;4.72;3.13;;;11.50;99.90;;;10.82;100.00;101775.97;5073349;23;20006;-77
2022/10/04 01:10:40;;;;;;;7.32;4.07;;;11.50;99.90;;;10.83;100.00;101775.84;5098451;23;20005;-77
2022/10/04 01:13:18;;;;;;;5.35;3.53;;;11.60;99.90;;;10.85;100.00;101773.06;5073488;23;20002;-77
2022/10/04 01:15:30;;;;;;;4.15;3.05;;;11.60;99.90;;;10.86;100.00;101780.03;5073886;23;20013;-77
2022/10/04 01:17:31;;;;;;;6.72;3.38;;;11.60;99.90;;;10.87;100.00;101773.78;5098117;23;20006;-77
2022/10/04 01:19:33;;;;;;;3.47;2.80;;;11.60;99.90;;;10.85;100.00;101770.44;5098375;23;20008;-77
2022/10/04 01:21:37;;;;;;;6.43;3.03;;;11.60;99.90;;;10.89;100.00;101774.50;5047998;23;20009;-77
2022/10/04 01:23:45;;;;;;;5.15;3.25;;;11.60;99.90;;;10.95;100.00;101776.59;5098248;23;20012;-77
2022/10/04 01:25:49;;;;;;;4.15;2.80;;;11.70;99.90;;;10.96;100.00;101768.53;5072390;23;20009;-77
2022/10/04 01:27:51;;;;;;;5.88;3.00;;;11.70;99.90;;;10.97;100.00;101766.72;5048028;23;20034;-77
2022/10/04 01:29:52;;;;;;;8.02;3.30;;;11.70;99.90;;;10.98;100.00;101763.97;5072669;23;20006;-77
2022/10/04 01:31:56;;;;;;;3.75;2.50;;;11.70;99.90;;;11.03;100.00;101772.31;5072481;23;20064;-77
2022/10/04 01:34:00;;;;;;;3.60;2.78;;;11.70;99.90;;;11.04;100.00;101774.00;5048047;23;20010;-77
2022/10/04 01:36:01;;;;;;;4.10;3.03;;;11.80;99.90;;;11.06;100.00;101772.03;5072312;23;20018;-77
2022/10/04 01:38:07;;;;;;;3.88;2.40;;;11.80;99.90;;;11.08;100.00;101770.09;5098380;23;20501;-77
2022/10/04 01:40:09;;;;;;;6.07;3.15;;;11.80;99.90;;;11.11;100.00;101775.13;5073097;23;20006;-77
2022/10/04 01:42:37;;;;;;;10.20;3.95;;;11.80;99.90;;;11.13;100.00;101769.72;5048414;23;20340;-77
2022/10/04 01:45:11;;;;;;;4.28;3.03;;;11.80;99.90;;;11.19;100.00;101765.69;5098224;23;20005;-77
2022/10/04 01:47:20;;;;;;;4.57;3.05;;;11.90;99.90;;;11.21;100.00;101763.75;5098465;23;20013;-77
2022/10/04 01:49:27;;;;;;;4.53;3.08;;;11.90;99.90;;;11.28;100.00;101771.00;5072815;23;20069;-77
2022/10/04 01:51:40;;;;;;;13.02;4.25;;;12.00;99.90;;;11.27;100.00;101757.91;5073358;23;20010;-77
2022/10/04 01:53:57;;;;;;;5.95;4.15;;;12.00;99.90;;;11.35;100.00;101760.75;5098252;23;20009;-77
2022/10/04 01:56:17;;;;;;;7.00;3.00;;;12.10;99.90;;;11.39;100.00;101762.13;5098084;23;20013;-77
2022/10/04 01:58:26;;;;;;;6.40;3.60;;;12.10;99.90;;;11.43;100.00;101759.09;5048762;23;20013;-77
2022/10/04 02:00:29;;;;;;;5.85;3.50;;;12.20;99.90;;;11.46;100.00;101755.31;5072674;23;20002;-77
2022/10/04 02:02:42;;;;;;;10.90;3.05;;;12.20;99.90;;;11.46;100.00;101747.41;5097847;23;20083;-77
2022/10/04 02:04:52;;;;;;;7.47;3.15;;;12.20;99.90;;;11.46;100.00;101748.25;5073058;23;20002;-77
2022/10/04 02:06:58;;;;;;;3.97;2.80;;;12.30;99.90;;;11.49;100.00;101753.25;5072834;23;20387;-77
2022/10/04 02:09:06;;;;;;;4.75;2.70;;;12.20;99.90;;;11.49;100.00;101739.19;5072652;23;20013;-77
2022/10/04 02:11:08;;;;;;;6.78;2.58;;;12.20;99.90;;;11.43;100.00;101745.88;5073295;23;20030;-77
2022/10/04 02:13:16;;;;;;;3.47;2.17;;;12.20;99.90;;;11.43;100.00;101739.75;5072920;23;20077;-77
2022/10/04 02:15:21;;;;;;;2.88;1.88;;;12.20;99.90;;;11.37;100.00;101727.09;5049089;23;20013;-77
2022/10/04 02:17:29;;;;;;;2.13;1.80;;;12.20;99.90;;;11.34;100.00;101733.50;5048510;23;20007;-77
2022/10/04 02:19:38;;;;;;;6.32;2.33;;;12.10;99.90;;;11.30;100.00;101728.59;5071915;23;20006;-77
2022/10/04 02:21:40;;;;;;;2.08;1.70;;;12.10;99.90;;;11.25;100.00;101723.75;5072858;23;20002;-77
2022/10/04 02:23:42;;;;;;;3.17;2.20;;;12.00;99.90;;;11.26;100.00;101721.94;5072753;23;20016;-77
2022/10/04 02:25:43;;;;;;;3.20;1.98;;;12.00;99.90;;;11.19;100.00;101710.25;5072294;23;20017;-77
2022/10/04 02:27:45;;;;;;;2.78;1.92;;;12.00;99.90;;;11.15;100.00;101706.19;5072405;23;20456;-77
2022/10/04 02:29:45;;;;;;;3.80;2.15;;;12.00;99.90;;;11.19;100.00;101718.16;5072313;23;20073;-77
2022/10/04 02:34:10;;;;;;;2.33;1.92;;;11.90;99.90;;;11.15;100.00;101725.50;5076007;23;20062;-77
2022/10/04 02:36:12;;;;;;;4.03;2.47;;;11.90;99.90;;;11.14;100.00;101718.56;5048126;23;20471;-77
2022/10/04 02:38:22;;;;;;;4.30;1.92;;;11.90;99.90;;;11.13;100.00;101705.50;5073275;23;20009;-77
2022/10/04 02:40:31;;;;;;;6.82;2.65;;;11.90;99.90;;;11.09;100.00;101712.84;5074110;23;20002;-77
2022/10/04 02:42:56;;;;;;;2.13;1.67;;;11.80;99.90;;;11.07;100.00;101712.16;5099669;23;20032;-77
2022/10/04 02:45:22;;;;;;;3.92;1.88;;;11.80;99.90;;;11.05;100.00;101701.72;5075772;23;20018;-77
2022/10/04 02:47:28;;;;;;;2.88;1.67;;;11.80;99.90;;;10.98;100.00;101697.13;5099605;23;20012;-77
2022/10/04 02:49:40;;;;;;;3.88;1.83;;;11.80;99.90;;;10.98;100.00;101695.31;5074049;23;20005;-77
2022/10/04 02:51:57;;;;;;;2.22;1.63;;;11.70;99.90;;;10.97;100.00;101693.66;5074773;23;20029;-77
2022/10/04 02:54:36;;;;;;;2.60;1.60;;;11.70;99.90;;;10.90;100.00;101687.22;5073308;23;20342;-77
2022/10/04 02:56:37;;;;;;;3.55;1.70;;;11.70;99.90;;;10.91;100.00;101698.63;5077239;23;20013;-77
2022/10/04 02:58:39;;;;;;;3.53;1.70;;;11.70;99.90;;;10.88;100.00;101702.38;5048991;23;20075;-77
2022/10/04 03:01:00;;;;;;;2.05;1.60;;;11.60;99.90;;;10.85;100.00;101701.81;5099490;23;20493;-77
2022/10/04 03:03:29;;;;;;;1.90;1.50;;;11.60;99.90;;;10.81;100.00;101695.94;5073187;23;20541;-77
2022/10/04 03:05:30;;;;;;;3.70;2.17;;;11.60;99.90;;;10.79;100.00;101700.53;5073304;23;20018;-77
2022/10/04 03:07:34;;;;;;;3.80;1.70;;;11.60;99.90;;;10.80;100.00;101701.38;5073442;23;20009;-77
2022/10/04 03:09:36;;;;;;;4.25;1.85;;;11.50;99.90;;;10.77;100.00;101702.50;5073564;23;20080;-77
2022/10/04 03:11:39;;;;;;;1.75;1.30;;;11.50;99.90;;;10.69;100.00;101683.84;5073465;23;20006;-77
2022/10/04 03:13:46;;;;;;;2.75;1.85;;;11.50;99.90;;;10.76;100.00;101705.25;5099436;23;20498;-77
2022/10/04 03:15:49;;;;;;;2.30;1.40;;;11.50;99.90;;;10.75;100.00;101701.75;5073849;23;20005;-77
2022/10/04 03:17:50;;;;;;;1.65;1.08;;;11.50;99.90;;;10.81;100.00;101711.78;5073121;23;20509;-77
2022/10/04 03:19:51;;;;;;;2.08;1.48;;;11.50;99.90;;;10.78;100.00;101704.13;5073554;23;20009;-77
2022/10/04 03:21:56;;;;;;;2.10;1.58;;;11.50;99.90;;;10.80;100.00;101701.38;5099264;23;20007;-77
2022/10/04 03:23:59;;;;;;;2.45;1.65;;;11.60;99.90;;;10.82;100.00;101710.81;5073023;23;20006;-77
2022/10/04 03:26:27;;;;;;;2.97;1.60;;;11.60;99.90;;;10.86;100.00;101701.69;5073045;23;20085;-77
2022/10/04 03:28:29;;;;;;;2.28;1.45;;;11.60;99.90;;;10.90;100.00;101703.06;5099176;23;20010;-77
2022/10/04 03:30:31;;;;;;;2.17;1.50;;;11.60;99.90;;;10.90;100.00;101705.72;5099384;23;20438;-77
2022/10/04 03:32:32;;;;;;;3.05;1.60;;;11.70;99.90;;;10.90;100.00;101696.97;5073042;23;20013;-77
2022/10/04 03:34:38;;;;;;;4.47;1.33;;;11.70;99.90;;;10.96;100.00;101699.88;5073340;23;20033;-77
2022/10/04 03:36:39;;;;;;;1.75;1.00;;;11.70;99.90;;;10.99;100.00;101701.44;5073133;23;20021;-77
2022/10/04 03:38:40;;;;;;;3.10;1.77;;;11.70;99.90;;;10.96;100.00;101701.72;5073255;23;20431;-77
2022/10/04 03:40:58;;;;;;;2.10;1.30;;;11.80;99.90;;;10.97;100.00;101701.56;5099151;23;20008;-77
2022/10/04 03:43:02;;;;;;;4.65;1.38;;;11.70;99.90;;;10.97;100.00;101708.66;5073627;23;20002;-77
2022/10/04 03:45:10;;;;;;;2.60;0.95;;;11.70;99.90;;;10.98;100.00;101710.31;5073537;23;20009;-77
2022/10/04 03:47:20;;;;;;;1.90;0.98;;;11.70;99.90;;;11.07;100.00;101718.28;5098991;23;20009;-77
2022/10/04 03:49:35;;;;;;;4.55;1.05;;;11.80;99.90;;;11.08;100.00;101709.38;5073671;23;20006;-77
2022/10/04 03:51:42;;;;;;;1.83;1.08;;;11.80;99.90;;;11.12;100.00;101712.56;5048957;23;20014;-77
2022/10/04 03:53:48;;;;;;;6.30;1.15;;;11.90;99.90;;;11.13;100.00;101705.50;5099044;23;20005;-77
2022/10/04 03:55:49;;;;;;;3.20;0.90;;;11.90;99.90;;;11.13;100.00;101710.78;5073434;23;20340;-77
2022/10/04 03:57:50;;;;;;;1.90;1.05;;;11.90;99.90;;;11.18;100.00;101714.69;5072920;23;20033;-77
2022/10/04 03:59:52;;;;;;;2.50;1.20;;;11.90;99.90;;;11.21;100.00;101716.22;5072982;23;20005;-77
2022/10/04 04:02:14;;;;;;;1.60;1.10;;;12.00;99.90;;;11.26;100.00;101714.00;5098693;23;20001;-77
2022/10/04 04:04:57;;;;;;;2.47;1.35;;;12.00;99.90;;;11.32;100.00;101714.28;5075127;23;20029;-77
2022/10/04 04:07:24;;;;;;;1.92;0.95;;;12.00;99.90;;;11.38;100.00;101710.28;5068371;23;20060;-77
2022/10/04 04:09:52;;;;;;;1.75;1.00;;;12.10;99.90;;;11.42;100.00;101699.28;5074450;23;20363;-77
2022/10/04 04:11:56;;;;;;;3.42;1.00;;;12.20;99.90;;;11.43;100.00;101698.31;5098838;23;20330;-77
2022/10/04 04:14:03;;;;;;;1.45;0.80;;;12.20;99.90;;;11.43;100.00;101678.97;5048457;23;20082;-77
2022/10/04 04:16:05;;;;;;;1.58;1.00;;;12.20;99.90;;;11.46;100.00;101679.56;5072902;23;20057;-77
2022/10/04 04:18:20;;;;;;;1.73;1.05;;;12.30;99.90;;;11.54;100.00;101686.75;5072701;23;20390;-77
2022/10/04 04:20:27;;;;;;;2.47;0.98;;;12.30;99.90;;;11.53;100.00;101685.94;5073759;23;20470;-77
2022/10/04 04:22:30;;;;;;;3.25;1.40;;;12.30;99.90;;;11.58;100.00;101690.81;5073305;23;20085;-77
2022/10/04 04:24:31;;;;;;;1.48;0.90;;;12.30;99.90;;;11.57;100.00;101689.97;5098818;23;20016;-77
2022/10/04 04:26:44;;;;;;;2.08;1.00;;;12.30;99.90;;;11.61;100.00;101687.88;5072944;23;20366;-77
2022/10/04 04:28:48;;;;;;;4.15;1.00;;;12.40;99.90;;;11.65;100.00;101699.84;5073216;23;20570;-77
2022/10/04 04:30:55;;;;;;;4.25;1.10;;;12.40;99.90;;;11.58;100.00;101696.94;5098795;23;20033;-77
2022/10/04 04:33:02;;;;;;;1.95;1.33;;;12.40;99.90;;;11.63;100.00;101699.16;5073330;23;20037;-77
2022/10/04 04:35:07;;;;;;;3.63;1.60;;;12.40;99.90;;;11.61;100.00;101699.31;5073760;23;20041;-77
2022/10/04 04:37:10;;;;;;;2.92;1.70;;;12.40;99.90;;;11.59;100.00;101690.66;5072412;23;20010;-77
2022/10/04 04:41:36;;;;;;;;;;;12.40;99.90;;;11.65;100.00;101694.53;5074500;23;20497;-77
2022/10/04 04:43:43;;;;;;;2.38;1.77;;;12.40;99.90;;;11.71;100.00;101698.50;5072623;23;19909;-77
2022/10/04 04:45:48;;;;;;;2.55;2.25;;;12.50;99.90;;;11.69;100.00;101685.38;5072821;23;20002;-77
2022/10/04 04:47:52;;;;;;;4.32;1.75;;;12.50;99.90;;;11.75;100.00;101690.13;5072538;23;20467;-77
2022/10/04 04:49:57;;;;;;;2.83;1.98;;;12.50;99.90;;;11.77;100.00;101688.16;5074107;23;20009;-77
2022/10/04 04:51:58;;;;;;;2.13;1.55;;;12.50;99.90;;;11.75;100.00;101684.84;5072661;23;20001;-77
2022/10/04 04:54:05;;;;;;;1.75;1.50;;;12.50;99.90;;;11.75;100.00;101679.56;5072793;23;20095;-77
2022/10/04 04:56:05;;;;;;;4.68;1.80;;;12.50;99.90;;;11.79;100.00;101677.47;5072617;23;20403;-77
2022/10/04 04:58:13;;;;;;;2.47;1.67;;;12.60;99.90;;;11.80;100.00;101677.31;5072643;23;20006;-77
2022/10/04 05:00:24;;;;;;;2.38;1.45;;;12.60;99.90;;;11.84;100.00;101683.16;5073070;23;20009;-77
2022/10/04 05:02:36;;;;;;;3.08;1.48;;;12.60;99.90;;;11.84;100.00;101684.00;5072443;23;20435;-77
2022/10/04 05:04:37;;;;;;;5.18;1.92;;;12.60;99.90;;;11.81;100.00;101675.50;5072770;23;20028;-77
2022/10/04 05:06:44;;;;;;;5.18;1.85;;;12.60;99.90;;;11.81;100.00;101668.41;5074063;23;20006;-77
2022/10/04 05:08:49;;;;;;;2.55;1.50;;;12.60;99.90;;;11.86;100.00;101671.47;5072762;23;20339;-77
2022/10/04 05:11:14;;;;;;;2.30;1.50;;;12.60;99.90;;;11.90;100.00;101675.50;5048034;23;20077;-77
2022/10/04 05:13:16;;;;;;;;;;;12.70;99.90;;;11.85;100.00;101669.81;5072817;23;20014;-77
2022/10/04 05:15:17;;;;;;;2.20;1.50;;;12.70;99.90;;;11.85;100.00;101672.47;5074001;23;19909;-77
2022/10/04 05:17:23;;;;;;;1.98;1.50;;;12.70;99.90;;;11.91;100.00;101677.19;5072232;23;20486;-77
2022/10/04 05:19:35;;;;;;;2.20;1.60;;;12.70;99.90;;;11.89;100.00;101672.97;5072572;23;20033;-77
2022/10/04 05:21:35;;;;;;;4.68;2.08;;;12.70;99.90;;;11.92;100.00;101680.63;5072634;23;20008;-77
2022/10/04 05:23:37;;;;;;;4.28;2.13;;;12.70;99.90;;;11.90;100.00;101672.03;5072546;23;20006;-77
2022/10/04 05:25:38;;;;;;;2.35;1.58;;;12.70;99.90;;;11.98;100.00;101685.34;5072494;23;20080;-77
2022/10/04 05:27:43;;;;;;;4.03;2.47;;;12.70;99.90;;;11.97;100.00;101675.78;5073946;23;20006;-77
2022/10/04 05:30:19;;;;;;;2.92;2.45;;;12.70;99.90;;;11.98;100.00;101674.78;5072540;23;20010;-77
2022/10/04 05:32:53;;;;;;;4.70;2.10;;;12.70;99.90;;;11.96;100.00;101672.28;5073673;23;20013;-77
2022/10/04 05:34:54;;;;;;;3.10;2.60;;;12.70;99.90;;;11.94;100.00;101671.63;5072680;23;20005;-77
2022/10/04 05:37:32;;;;;;;3.15;2.33;;;12.70;99.90;;;11.96;100.00;101666.16;5047565;23;20042;-77
2022/10/04 05:39:47;;;;;;;2.58;1.88;;;12.70;99.90;;;12.00;100.00;101683.44;5073939;23;20008;-77
2022/10/04 05:42:19;;;;;;;2.60;1.75;;;12.70;99.90;;;12.03;100.00;101680.50;5072121;23;20006;-77
2022/10/04 05:44:34;;;;;;;3.25;1.52;;;12.70;99.90;;;12.00;100.00;101675.50;5049490;23;20391;-77
2022/10/04 05:46:36;;;;;;;1.58;1.17;;;12.80;99.90;;;12.01;100.00;101680.63;5072534;23;20466;-77
2022/10/04 05:48:41;;;;;;;3.83;1.23;;;12.80;99.90;;;12.01;100.00;101677.97;5073475;23;20014;-77
2022/10/04 05:50:43;;;;;;;3.38;1.48;;;12.80;99.90;;;12.02;100.00;101670.88;5071892;23;20010;-77
2022/10/04 05:52:48;;;;;;;1.85;1.30;;;12.80;99.90;;;12.08;100.00;101680.91;5072457;23;20017;-77
2022/10/04 05:55:10;;;;;;;2.25;1.40;;;12.80;99.90;;;12.11;100.00;101683.25;5072453;23;20010;-77
2022/10/04 05:57:32;;;;;;;2.70;1.52;;;12.80;99.90;;;12.09;100.00;101678.13;5073742;23;20017;-77
2022/10/04 06:00:08;;;;;;;2.28;1.42;;;12.90;99.90;;;12.10;100.00;101687.72;5072109;23;20100;-77
2022/10/04 06:02:31;;;;;;;;;;;12.90;99.90;;;12.04;100.00;101671.56;5072565;23;20010;-77
2022/10/04 06:05:08;;;;;;;3.85;1.80;;;12.90;99.90;;;12.10;100.00;101685.06;5093573;23;19939;-77
2022/10/04 06:07:33;;;;;;;1.95;1.08;;;12.90;99.90;;;12.15;100.00;101688.13;5073839;23;20029;-77
2022/10/04 06:10:17;;;;;;;4.32;1.90;;;12.90;99.90;;;12.17;100.00;101686.16;5074025;23;20006;-77
2022/10/04 06:12:45;;;;;;;3.55;1.77;;;12.90;99.90;;;12.17;100.00;101691.47;5053235;23;20402;-77
2022/10/04 06:15:16;;;;;;;2.05;1.52;;;12.90;99.90;;;12.18;100.00;101697.59;5075321;23;20006;-77
2022/10/04 06:17:54;;;;;;;3.80;2.10;;;12.90;99.90;;;12.21;100.00;101687.53;5074399;23;20014;-77
2022/10/04 06:20:35;;;;;;;3.08;2.20;;;13.00;99.90;;;12.24;100.00;101696.19;5074984;23;20057;-78
2022/10/04 06:22:45;;;;;;;2.65;1.95;;;13.00;99.90;;;12.25;100.00;101698.66;5074562;23;20013;-77
2022/10/04 06:25:00;;;;;;;2.83;1.77;;;13.00;99.90;;;12.27;100.00;101695.88;5073738;23;20017;-78
2022/10/04 06:27:24;;;;;;;2.22;1.60;;;13.10;99.90;;;12.35;100.00;101709.22;5049957;23;20006;-78
2022/10/04 06:29:32;;;;;;;2.15;1.50;;;13.10;99.90;;;12.40;100.00;101715.75;5073975;23;20002;-78
2022/10/04 06:31:56;;;;;;;3.88;2.13;;;13.20;99.90;;;12.44;100.00;101716.31;5073454;23;20002;-79
2022/10/04 06:34:20;;;;;;;2.38;1.85;;;13.20;99.90;;;12.47;100.00;101713.38;5075030;23;20010;-78
2022/10/04 06:36:36;;;;;;;2.40;1.80;;;13.20;99.90;;;12.52;100.00;101713.75;5073635;23;20092;-78
2022/10/04 06:39:01;;;;;;;2.65;2.05;;;13.30;99.90;;;12.59;100.00;101725.44;5075151;23;20436;-79
2022/10/04 06:41:43;;;;;;;5.38;2.45;;;13.30;99.90;;;12.63;100.00;101719.69;5075207;23;20006;-78
2022/10/04 06:44:12;;;;;;;2.67;1.80;;;13.40;99.90;;;12.65;100.00;101725.69;5025391;23;20100;-78
2022/10/04 06:46:18;;;;;;;4.22;2.30;;;13.40;99.90;;;12.69;100.00;101718.31;5075109;23;20342;-78
2022/10/04 06:48:35;;;;;;;4.53;2.30;;;13.50;99.90;;;12.72;100.00;101712.72;5074808;23;20016;-78
2022/10/04 06:50:50;;;;;;;3.17;1.90;;;13.50;99.90;;;12.77;100.00;101713.09;5073777;23;20500;-78
2022/10/04 06:53:51;;;;;;;2.95;1.90;;;13.50;99.90;;;12.84;100.00;101700.13;5074709;23;20006;-78
2022/10/04 06:56:44;;;;;;;5.28;2.28;;;13.60;99.90;;;12.94;100.00;101709.66;5061368;23;20014;-78
2022/10/04 06:59:23;;;;;;;4.68;2.17;;;13.60;99.90;;;12.99;100.00;101707.41;5075031;23;20009;-78
2022/10/04 07:01:31;;;;;;;4.18;1.88;;;13.70;99.90;;;12.93;100.00;101692.09;5074953;23;20343;-78
2022/10/04 07:04:19;;;;;;;2.60;2.10;;;13.80;99.90;;;13.09;100.00;101716.16;5072966;23;20466;-78
2022/10/04 07:06:30;;;;;;;2.92;2.30;;;13.80;99.90;;;13.13;100.00;101704.31;5074967;23;20006;-78
2022/10/04 07:08:49;;;;;;;2.47;1.60;;;13.90;99.90;;;13.19;100.00;101706.34;5073785;23;20032;-78
2022/10/04 07:10:55;;;;;;;3.00;2.03;;;13.90;99.90;;;13.26;100.00;101710.06;5075165;23;20010;-78
2022/10/04 07:13:08;;;;;;;3.80;2.38;;;14.00;99.90;;;13.33;100.00;101723.56;5073467;23;20583;-78
2022/10/04 07:15:22;;;;;;;3.95;2.17;;;14.00;99.90;;;13.37;100.00;101721.44;5073033;23;20108;-78
2022/10/04 07:17:31;;;;;;;3.65;2.45;;;14.00;99.90;;;13.37;100.00;101724.94;5074192;23;20006;-78
2022/10/04 07:19:51;;;;;;;3.83;2.38;;;14.10;99.90;;;13.41;100.00;101730.75;5073253;23;20006;-78
2022/10/04 07:22:06;;;;;;;3.65;2.08;;;14.10;99.90;;;13.46;100.00;101728.50;5073571;23;20002;-78
2022/10/04 07:24:17;;;;;;;1.98;1.67;;;14.10;99.90;;;13.48;100.00;101724.69;5074541;23;20002;-78
2022/10/04 07:26:36;;;;;;;2.85;1.58;;;14.20;99.90;;;13.51;100.00;101735.00;5073368;23;20012;-78
2022/10/04 07:31:10;;;;;;;4.15;2.90;;;14.30;99.90;;;13.58;100.00;101730.78;5074751;23;20021;-78
2022/10/04 07:33:17;;;;;;;3.45;2.55;;;14.40;99.90;;;13.72;100.00;101730.22;5073037;23;20010;-78
2022/10/04 07:35:34;;;;;;;2.72;2.13;;;14.40;99.90;;;13.80;100.00;101737.41;5073255;23;20012;-78
2022/10/04 07:38:09;;;;;;;5.22;3.08;;;14.50;99.90;;;13.81;100.00;101731.13;5073335;23;20521;-78
2022/10/04 07:40:29;;;;;;;2.30;2.08;;;14.50;99.90;;;13.93;100.00;101732.56;5073825;23;20030;-78
2022/10/04 07:42:43;;;;;;;4.47;2.35;;;14.60;99.90;;;13.97;100.00;101727.78;5074810;23;20434;-78
2022/10/04 07:44:59;;;;;;;3.70;2.45;;;14.70;99.90;;;13.96;100.00;101728.75;5073217;23;20002;-78
2022/10/04 07:47:00;;;;;;;3.85;2.35;;;14.70;99.90;;;14.00;100.00;101738.09;5073301;23;20041;-78
2022/10/04 07:49:01;;;;;;;2.83;2.35;;;14.70;99.90;;;13.99;100.00;101728.47;5074322;23;20013;-78
2022/10/04 07:51:18;;;;;;;4.78;2.70;;;14.70;99.90;;;14.02;100.00;101721.03;5073146;23;20371;-78
2022/10/04 07:54:03;;;;;;;4.07;2.55;;;14.70;99.90;;;14.16;100.00;101709.84;5073231;23;20013;-78
2022/10/04 07:56:25;;;;;;;2.60;2.40;;;14.80;99.90;;;14.33;100.00;101711.66;5074598;23;20097;-78
2022/10/04 07:58:48;;;;;;;3.22;2.45;;;15.10;99.90;;;14.44;100.00;101707.06;5073359;23;20002;-78
2022/10/04 08:01:34;;;;;;;4.88;3.45;;;15.10;99.90;;;14.47;100.00;101715.56;5073101;23;20010;-78
2022/10/04 08:04:12;;;;;;;4.15;3.00;;;15.20;99.90;;;14.51;100.00;101710.75;5023942;23;20347;-78
2022/10/04 08:06:38;;;;;;;4.20;3.40;;;15.20;99.90;;;14.56;100.00;101724.38;5024370;23;20007;-78
2022/10/04 08:09:18;;;;;;;4.68;3.40;;;15.30;99.90;;;14.61;100.00;101719.44;5049771;23;20017;-78
2022/10/04 08:11:43;;;;;;;4.60;3.25;;;15.30;99.90;;;14.61;100.00;101730.03;5074585;23;20427;-78
2022/10/04 08:14:09;;;;;;;5.57;3.92;;;15.30;99.90;;;14.62;100.00;101729.06;5074486;23;20084;-78
2022/10/04 08:16:31;;;;;;;4.82;3.63;;;15.30;99.90;;;14.70;100.00;101729.09;5074341;23;20002;-78
2022/10/04 08:18:47;;;;;;;4.20;3.50;;;15.40;99.90;;;14.72;100.00;101725.31;5074009;23;20447;-78
2022/10/04 08:21:00;;;;;;;5.00;3.80;;;15.40;99.90;;;14.79;100.00;101723.69;5074325;23;20010;-78
2022/10/04 08:23:16;;;;;;;4.65;3.67;;;15.40;99.90;;;14.84;100.00;101725.88;5073173;23;20002;-78
2022/10/04 08:25:57;;;;;;;4.28;2.95;;;15.50;99.90;;;14.93;100.00;101723.06;5074243;23;20005;-78
2022/10/04 08:30:30;;;;;;;5.80;3.60;;;15.70;99.90;;;15.03;100.00;101717.63;5074165;23;20070;-78
2022/10/04 08:33:27;;;;;;;6.40;3.85;;;15.70;99.90;;;15.05;100.00;101720.13;5072273;23;20001;-78
2022/10/04 08:35:36;;;;;;;5.55;3.85;;;15.80;99.90;;;15.07;100.00;101718.13;5059853;23;20033;-78
2022/10/04 08:37:58;;;;;;;7.22;4.55;;;15.80;99.90;;;15.15;100.00;101726.13;5073194;23;20006;-78
2022/10/04 08:40:29;;;;;;;3.42;3.10;;;15.90;99.90;;;15.23;100.00;101724.31;5098664;23;20056;-78
2022/10/04 08:43:00;;;;;;;4.22;3.20;;;15.90;99.90;;;15.29;100.00;101736.97;5086208;23;20109;-78
2022/10/04 08:45:37;;;;;;;5.47;3.35;;;16.00;99.90;;;15.34;100.00;101721.38;5099064;23;20012;-78
2022/10/04 08:48:00;;;;;;;3.88;2.92;;;16.00;99.90;;;15.39;100.00;101729.69;5098264;23;20006;-78
2022/10/04 08:50:38;;;;;;;4.50;3.38;;;16.10;99.90;;;15.39;100.00;101734.16;5098882;23;20028;-78
2022/10/04 08:53:31;;;;;;;3.75;3.03;;;16.10;99.90;;;15.44;100.00;101737.19;5072290;23;20013;-78
2022/10/04 08:56:04;;;;;;;5.18;3.72;;;16.10;99.90;;;15.45;100.00;101729.03;5043367;23;20071;-78
2022/10/04 08:58:50;;;;;;;4.30;3.90;;;16.20;99.90;;;15.44;100.00;101732.69;5098492;23;20005;-78
2022/10/04 09:01:19;;;;;;;4.47;3.80;;;16.20;99.90;;;15.41;100.00;101729.53;5075558;23;20114;-78
2022/10/04 09:03:44;;;;;;;8.23;4.97;;;16.10;99.90;;;15.34;100.00;101737.31;5098254;23;20338;-78
2022/10/04 09:06:02;;;;;;;5.63;4.35;;;16.10;99.90;;;15.36;100.00;101739.81;5098650;23;20077;-78
2022/10/04 09:08:44;;;;;;;6.72;3.50;;;16.10;99.90;;;15.37;100.00;101741.47;5072307;23;20001;-78
2022/10/04 09:11:18;;;;;;;4.80;3.78;;;16.10;99.90;;;15.45;100.00;101747.66;5051670;23;20006;-78
2022/10/04 09:13:33;;;;;;;6.68;5.25;;;16.10;99.90;;;15.52;100.00;101745.19;5098583;23;20024;-78
2022/10/04 09:16:05;;;;;;;6.55;5.20;;;16.20;99.90;;;15.62;100.00;101740.53;5049558;23;20011;-78
2022/10/04 09:18:11;;;;;;;6.25;4.10;;;16.30;99.90;;;15.72;100.00;101751.03;5098139;23;20005;-78
2022/10/04 09:21:00;;;;;;;6.60;5.10;;;16.40;99.90;;;15.81;100.00;101747.38;5098367;23;20382;-78
2022/10/04 09:23:19;;;;;;;7.82;6.53;;;16.40;99.90;;;15.84;100.00;101744.41;5098482;23;20032;-78
2022/10/04 09:26:06;;;;;;;13.10;9.05;;;16.50;99.90;;;15.75;100.00;101754.19;5074806;23;20006;-78
2022/10/04 09:28:57;;;;;;;8.82;6.72;;;16.50;99.90;;;15.90;100.00;101751.72;5074010;23;20017;-78